Time,TemperatureF,DewpointF,PressureIn,WindDirection,WindDirectionDegrees,WindSpeedMPH,WindSpeedGustMPH,Humidity,HourlyPrecipIn,Conditions,Clouds,dailyrainin,SolarRadiationWatts/m^2,SoftwareType,DateUTC
2013-08-06 00:33:00,44.0,42.0,-100.00,SSW,208,0.0,2.0,92,0.00,,,0.00,0.000000,,2013-08-06 08:33:00,
2013-08-06 00:43:00,44.0,42.0,-100.00,SSW,208,0.0,2.0,92,0.00,,,0.00,0.000000,,2013-08-06 08:43:00,
2013-08-06 00:52:00,44.0,42.0,-100.00,SSW,208,0.0,2.0,92,0.00,,,0.00,0.000000,,2013-08-06 08:52:00,
2013-08-06 01:32:00,40.0,38.0,-100.00,SSW,193,0.0,3.0,94,0.00,,,0.00,0.000000,,2013-08-06 09:32:00,
2013-08-06 01:43:00,40.0,38.0,-100.00,SSW,193,0.0,3.0,94,0.00,,,0.00,0.000000,,2013-08-06 09:43:00,
2013-08-06 01:52:00,40.0,38.0,-100.00,SSW,193,0.0,3.0,94,0.00,,,0.00,0.000000,,2013-08-06 09:52:00,
2013-08-06 02:22:00,38.0,37.0,-100.00,South,174,1.0,2.0,95,-99.99,,,0.00,0.000000,,2013-08-06 10:22:00,
2013-08-06 02:32:00,38.0,37.0,-100.00,South,174,1.0,2.0,95,-99.99,,,0.00,0.000000,,2013-08-06 10:32:00,
2013-08-06 02:43:00,38.0,37.0,-100.00,South,174,1.0,2.0,95,-99.99,,,0.00,0.000000,,2013-08-06 10:43:00,
2013-08-06 02:52:00,38.0,37.0,-100.00,South,174,1.0,2.0,95,-99.99,,,0.00,0.000000,,2013-08-06 10:52:00,
2013-08-06 03:21:00,36.0,35.0,-100.00,SSW,201,0.0,2.0,96,-99.99,,,0.00,0.000000,,2013-08-06 11:21:00,
2013-08-06 03:32:00,36.0,35.0,-100.00,SSW,201,0.0,2.0,96,-99.99,,,0.00,0.000000,,2013-08-06 11:32:00,
2013-08-06 03:43:00,36.0,35.0,-100.00,SSW,201,0.0,2.0,96,-99.99,,,0.00,0.000000,,2013-08-06 11:43:00,
2013-08-06 04:43:00,35.0,34.0,-100.00,South,179,0.0,2.0,96,-99.99,,,0.00,0.000000,,2013-08-06 12:43:00,
2013-08-06 04:52:00,35.0,34.0,-100.00,South,179,0.0,2.0,96,-99.99,,,0.00,0.000000,,2013-08-06 12:52:00,
2013-08-06 07:22:00,34.0,33.0,-100.00,South,173,0.0,2.0,95,-99.99,,,0.00,54.000000,,2013-08-06 15:22:00,
2013-08-06 07:33:00,34.0,33.0,-100.00,South,173,0.0,2.0,95,-99.99,,,0.00,54.000000,,2013-08-06 15:33:00,
2013-08-06 07:44:00,34.0,33.0,-100.00,South,173,0.0,2.0,95,-99.99,,,0.00,54.000000,,2013-08-06 15:44:00,
2013-08-06 07:52:00,34.0,33.0,-100.00,South,173,0.0,2.0,95,-99.99,,,0.00,54.000000,,2013-08-06 15:52:00,
2013-08-06 08:22:00,51.0,44.0,-100.00,NE,36,0.0,2.0,78,-99.99,,,0.00,237.000000,,2013-08-06 16:22:00,
2013-08-06 08:32:00,51.0,44.0,-100.00,NE,36,0.0,2.0,78,-99.99,,,0.00,237.000000,,2013-08-06 16:32:00,
2013-08-06 08:42:00,51.0,44.0,-100.00,NE,36,0.0,2.0,78,-99.99,,,0.00,237.000000,,2013-08-06 16:42:00,
2013-08-06 08:52:00,51.0,44.0,-100.00,NE,36,0.0,2.0,78,-99.99,,,0.00,237.000000,,2013-08-06 16:52:00,
2013-08-06 09:43:00,56.0,46.0,-100.00,East,84,1.0,4.0,69,0.00,,,0.00,356.000000,,2013-08-06 17:43:00,
2013-08-06 09:52:00,56.0,46.0,-100.00,East,84,1.0,4.0,69,0.00,,,0.00,356.000000,,2013-08-06 17:52:00,
2013-08-06 10:32:00,60.0,47.0,-100.00,North,360,1.0,5.0,62,0.00,,,-99.99,483.000000,,2013-08-06 18:32:00,
2013-08-06 10:43:00,60.0,47.0,-100.00,North,360,1.0,5.0,62,0.00,,,-99.99,483.000000,,2013-08-06 18:43:00,
2013-08-06 10:52:00,60.0,47.0,-100.00,North,360,1.0,5.0,62,0.00,,,-99.99,483.000000,,2013-08-06 18:52:00,
2013-08-06 11:21:00,63.0,47.0,-100.00,NNW,345,2.0,6.0,56,0.00,,,0.00,598.000000,,2013-08-06 19:21:00,
2013-08-06 11:32:00,63.0,47.0,-100.00,NNW,345,2.0,6.0,56,0.00,,,0.00,598.000000,,2013-08-06 19:32:00,
2013-08-06 11:42:00,63.0,47.0,-100.00,NNW,345,2.0,6.0,56,0.00,,,0.00,598.000000,,2013-08-06 19:42:00,
2013-08-06 11:52:00,63.0,47.0,-100.00,NNW,345,2.0,6.0,56,0.00,,,0.00,598.000000,,2013-08-06 19:52:00,
2013-08-06 12:44:00,67.0,47.0,-100.00,SW,217,2.0,7.0,48,0.00,,,0.00,687.000000,,2013-08-06 20:44:00,
2013-08-06 12:52:00,67.0,47.0,-100.00,SW,217,2.0,7.0,48,0.00,,,0.00,687.000000,,2013-08-06 20:52:00,
2013-08-06 13:43:00,69.0,47.0,-100.00,SW,219,1.0,7.0,46,0.00,,,0.00,744.000000,,2013-08-06 21:43:00,
2013-08-06 13:52:00,69.0,47.0,-100.00,SW,219,1.0,7.0,46,0.00,,,0.00,744.000000,,2013-08-06 21:52:00,
2013-08-06 14:21:00,71.0,47.0,-100.00,North,1,3.0,8.0,43,0.00,,,0.00,759.000000,,2013-08-06 22:21:00,
2013-08-06 14:32:00,71.0,47.0,-100.00,North,1,3.0,8.0,43,0.00,,,0.00,759.000000,,2013-08-06 22:32:00,
2013-08-06 14:43:00,71.0,47.0,-100.00,North,1,3.0,8.0,43,0.00,,,0.00,759.000000,,2013-08-06 22:43:00,
2013-08-06 14:52:00,71.0,47.0,-100.00,North,1,3.0,8.0,43,0.00,,,0.00,759.000000,,2013-08-06 22:52:00,
2013-08-06 15:22:00,73.0,47.0,-100.00,NW,309,4.0,9.0,39,0.00,,,0.00,744.000000,,2013-08-06 23:22:00,
2013-08-06 15:32:00,73.0,47.0,-100.00,NW,309,4.0,9.0,39,0.00,,,0.00,744.000000,,2013-08-06 23:32:00,
2013-08-06 15:43:00,73.0,47.0,-100.00,NW,309,4.0,9.0,39,0.00,,,0.00,744.000000,,2013-08-06 23:43:00,
2013-08-06 15:52:00,73.0,47.0,-100.00,NW,309,4.0,9.0,39,0.00,,,0.00,744.000000,,2013-08-06 23:52:00,
2013-08-06 16:21:00,75.0,45.0,-100.00,SW,222,3.0,9.0,35,0.00,,,0.00,691.000000,,2013-08-07 00:21:00,
2013-08-06 16:32:00,75.0,45.0,-100.00,SW,222,3.0,9.0,35,0.00,,,0.00,691.000000,,2013-08-07 00:32:00,
2013-08-06 16:43:00,75.0,45.0,-100.00,SW,222,3.0,9.0,35,0.00,,,0.00,691.000000,,2013-08-07 00:43:00,
2013-08-06 16:52:00,75.0,45.0,-100.00,SW,222,3.0,9.0,35,0.00,,,0.00,691.000000,,2013-08-07 00:52:00,
2013-08-06 17:43:00,76.0,44.0,-100.00,NW,310,3.0,10.0,32,0.00,,,0.00,607.000000,,2013-08-07 01:43:00,
2013-08-06 17:52:00,76.0,44.0,-100.00,NW,310,3.0,10.0,32,0.00,,,0.00,607.000000,,2013-08-07 01:52:00,
2013-08-06 18:33:00,77.0,42.0,-100.00,WNW,293,2.0,8.0,29,0.00,,,0.00,500.000000,,2013-08-07 02:33:00,
2013-08-06 18:43:00,77.0,42.0,-100.00,WNW,293,2.0,8.0,29,0.00,,,0.00,500.000000,,2013-08-07 02:43:00,
2013-08-06 18:53:00,77.0,42.0,-100.00,WNW,293,2.0,8.0,29,0.00,,,0.00,500.000000,,2013-08-07 02:53:00,
2013-08-06 19:32:00,77.0,41.0,-100.00,West,260,3.0,9.0,28,-99.99,,,0.00,377.000000,,2013-08-07 03:32:00,
2013-08-06 19:43:00,77.0,41.0,-100.00,West,260,3.0,9.0,28,-99.99,,,0.00,377.000000,,2013-08-07 03:43:00,
2013-08-06 19:52:00,77.0,41.0,-100.00,West,260,3.0,9.0,28,-99.99,,,0.00,377.000000,,2013-08-07 03:52:00,
2013-08-06 20:33:00,75.0,42.0,-100.00,West,261,3.0,7.0,31,-99.99,,,0.00,249.000000,,2013-08-07 04:33:00,
2013-08-06 20:43:00,75.0,42.0,-100.00,West,261,3.0,7.0,31,-99.99,,,0.00,249.000000,,2013-08-07 04:43:00,
2013-08-06 20:52:00,75.0,42.0,-100.00,West,261,3.0,7.0,31,-99.99,,,0.00,249.000000,,2013-08-07 04:52:00,
2013-08-06 21:22:00,67.0,47.0,-100.00,WNW,295,2.0,5.0,48,0.00,,,0.00,117.000000,,2013-08-07 05:22:00,
2013-08-06 22:22:00,60.0,44.0,-100.00,SSW,197,1.0,6.0,56,0.00,,,0.00,13.000000,,2013-08-07 06:22:00,
2013-08-06 22:32:00,60.0,44.0,-100.00,SSW,197,1.0,6.0,56,0.00,,,0.00,13.000000,,2013-08-07 06:32:00,
2013-08-06 22:43:00,60.0,44.0,-100.00,SSW,197,1.0,6.0,56,0.00,,,0.00,13.000000,,2013-08-07 06:43:00,
2013-08-06 22:52:00,60.0,44.0,-100.00,SSW,197,1.0,6.0,56,0.00,,,0.00,13.000000,,2013-08-07 06:52:00,
2013-08-06 23:33:00,50.0,44.0,-100.00,ENE,59,0.0,3.0,81,0.00,,,0.00,1.000000,,2013-08-07 07:33:00,
2013-08-06 23:43:00,50.0,44.0,-100.00,ENE,59,0.0,3.0,81,0.00,,,0.00,1.000000,,2013-08-07 07:43:00,
2013-08-06 23:52:00,50.0,44.0,-100.00,ENE,59,0.0,3.0,81,0.00,,,0.00,1.000000,,2013-08-07 07:52:00,